Time;durP1;ratioP1;P1;durP2;ratioP2;P2;SDS_P1;SDS_P2;PMS_P1;PMS_P2;Temp;Humidity;BMP_temperature;BMP_pressure;BME280_temperature;BME280_humidity;BME280_pressure;Samples;Min_cycle;Max_cycle;Signal;HPM_P1;HPM_P2
2021/06/14 00:02:54;;;;;;;;;11.00;11.00;;;;;20.22;89.77;100693.56;5076509;28;8838;-73
2021/06/14 00:05:50;;;;;;;;;14.00;14.00;;;;;20.15;90.20;100692.75;5075118;28;8837;-74
2021/06/14 00:08:45;;;;;;;;;13.75;13.75;;;;;20.00;90.60;100689.88;5075045;28;8932;-73
2021/06/14 00:11:13;;;;;;;;;15.75;15.75;;;;;19.98;91.07;100691.47;5076151;28;8818;-73
2021/06/14 00:14:09;;;;;;;;;14.25;14.25;;;;;20.02;90.75;100692.31;5075214;28;8880;-73
2021/06/14 00:16:51;;;;;;;;;12.00;12.00;;;;;20.02;91.00;100694.31;5075465;28;8881;-73
2021/06/14 00:19:48;;;;;;;;;13.00;13.00;;;;;19.93;90.95;100695.47;5074887;28;8864;-73
2021/06/14 00:22:43;;;;;;;;;12.00;12.00;;;;;20.03;90.95;100693.91;5074808;28;8955;-73
2021/06/14 00:25:39;;;;;;;;;12.00;12.00;;;;;20.05;90.88;100690.72;5061526;28;8868;-73
2021/06/14 00:28:37;;;;;;;;;12.75;12.75;;;;;20.00;90.92;100689.88;5074584;28;8822;-73
2021/06/14 00:31:32;;;;;;;;;13.50;13.50;;;;;19.98;91.36;100697.09;5056703;28;8839;-73
2021/06/14 00:34:00;;;;;;;;;15.50;15.50;;;;;19.93;91.25;100695.47;5056105;28;8867;-73
2021/06/14 00:36:56;;;;;;;;;14.00;14.00;;;;;20.05;90.69;100693.50;5054606;28;8844;-73
2021/06/14 00:39:52;;;;;;;;;12.50;12.50;;;;;20.03;90.60;100691.13;5054188;28;8824;-73
2021/06/14 00:42:20;;;;;;;;;12.75;12.75;;;;;20.13;90.51;100695.16;5055379;28;8924;-74
2021/06/14 00:45:18;;;;;;;;;15.25;15.25;;;;;20.08;90.20;100696.31;5041877;28;8860;-73
2021/06/14 00:48:15;;;;;;;;;14.50;14.50;;;;;20.09;90.19;100695.16;5041226;28;8827;-73
2021/06/14 00:51:11;;;;;;;;;15.00;15.00;;;;;19.91;91.01;100689.44;5054306;28;8875;-73
2021/06/14 00:54:06;;;;;;;;;16.75;16.75;;;;;19.86;90.71;100689.84;5041257;28;8836;-73
2021/06/14 00:56:48;;;;;;;;;13.25;13.25;;;;;19.87;91.12;100687.84;5039767;28;8852;-73
2021/06/14 00:59:44;;;;;;;;;13.00;13.00;;;;;19.82;91.13;100691.81;5054245;28;8828;-73
2021/06/14 01:02:12;;;;;;;;;15.00;14.50;;;;;19.78;90.81;100681.75;5055028;28;8843;-73
2021/06/14 01:04:48;;;;;;;;;13.75;13.75;;;;;19.86;90.72;100689.84;5054983;28;8828;-73
2021/06/14 01:07:44;;;;;;;;;14.75;14.75;;;;;19.81;91.00;100686.59;5054391;28;8835;-73
2021/06/14 01:10:12;;;;;;;;;12.00;12.00;;;;;19.79;90.94;100687.00;5054992;28;8840;-74
2021/06/14 01:13:20;;;;;;;;;15.50;15.50;;;;;19.89;91.02;100688.25;5053730;28;9636;-73
2021/06/14 01:16:33;;;;;;;;;14.00;13.50;;;;;19.81;91.26;100687.41;5040734;28;8836;-73
2021/06/14 01:19:50;;;;;;;;;14.00;14.00;;;;;19.81;91.13;100690.22;5040420;28;8868;-74
2021/06/14 01:23:28;;;;;;;;;12.50;12.50;;;;;19.79;91.54;100689.81;5053518;28;8913;-73
2021/06/14 01:26:28;;;;;;;;;16.50;16.00;;;;;19.79;92.44;100689.81;5040152;28;8840;-74
2021/06/14 01:29:25;;;;;;;;;17.50;17.50;;;;;19.79;92.17;100692.63;5053580;28;8832;-74
2021/06/14 01:32:21;;;;;;;;;15.00;15.00;;;;;19.80;91.95;100704.63;5073081;28;8870;-73
2021/06/14 01:35:35;;;;;;;;;13.75;13.75;;;;;19.71;91.67;100705.81;5060280;28;8833;-73
2021/06/14 01:38:04;;;;;;;;;13.50;13.50;;;;;19.60;91.69;100704.91;5059392;28;8862;-74
2021/06/14 01:41:06;;;;;;;;;14.00;14.00;;;;;19.61;91.61;100702.91;5054798;28;8862;-73
2021/06/14 01:44:03;;;;;;;;;13.50;13.50;;;;;19.61;91.39;100714.16;5053418;28;8855;-73
2021/06/14 01:46:37;;;;;;;;;15.25;15.25;;;;;19.63;91.70;100718.19;5054287;28;8829;-74
2021/06/14 01:49:34;;;;;;;;;13.00;13.00;;;;;19.59;91.67;100724.97;5053372;28;8843;-74
2021/06/14 01:52:30;;;;;;;;;13.75;13.75;;;;;19.66;91.95;100710.97;5053039;28;8854;-74
2021/06/14 01:55:27;;;;;;;;;14.75;14.75;;;;;19.68;91.72;100726.22;5052602;28;8855;-73
2021/06/14 01:58:10;;;;;;;;;14.00;14.00;;;;;19.53;92.05;100727.28;5053429;28;9625;-73
2021/06/14 02:01:06;;;;;;;;;14.25;13.75;;;;;19.66;91.64;100734.22;5041012;28;8836;-74
2021/06/14 02:04:04;;;;;;;;;13.50;13.50;;;;;19.64;91.77;100745.03;5052808;28;9628;-74
2021/06/14 02:06:36;;;;;;;;;14.50;14.00;;;;;19.61;92.06;100737.38;5053555;28;8844;-73
2021/06/14 02:09:21;;;;;;;;;12.75;12.75;;;;;19.67;91.74;100743.44;5038183;28;8856;-74
2021/06/14 02:12:17;;;;;;;;;17.50;17.50;;;;;19.66;91.68;100747.44;5054089;28;8828;-75
2021/06/14 02:15:15;;;;;;;;;18.25;18.25;;;;;19.69;91.64;100743.84;5052535;28;8846;-74
2021/06/14 02:18:12;;;;;;;;;33.25;30.75;;;;;19.65;91.48;100745.84;5052673;28;8856;-74
2021/06/14 02:21:07;;;;;;;;;47.00;40.00;;;;;19.57;92.16;100749.81;5052322;28;8828;-74
2021/06/14 02:24:03;;;;;;;;;47.67;40.00;;;;;19.59;91.96;100741.78;5052456;28;9112;-74
2021/06/14 02:26:59;;;;;;;;;46.00;39.75;;;;;19.62;91.99;100744.59;5052821;28;9092;-74
2021/06/14 02:29:55;;;;;;;;;36.25;33.50;;;;;19.56;92.48;100745.34;5056802;28;8830;-74
2021/06/14 02:32:51;;;;;;;;;45.00;38.75;;;;;19.70;91.31;100745.44;5072283;28;8995;-74
2021/06/14 02:35:46;;;;;;;;;30.25;29.50;;;;;19.62;91.08;100746.59;5060626;28;8842;-73
2021/06/14 02:38:44;;;;;;;;;35.00;33.00;;;;;19.61;91.38;100743.00;5072548;28;9623;-73
2021/06/14 02:41:14;;;;;;;;;31.00;30.50;;;;;19.73;91.19;100749.50;5051933;28;8876;-74
2021/06/14 02:44:10;;;;;;;;;26.00;26.00;;;;;19.64;91.37;100756.25;5066467;28;8857;-73
2021/06/14 02:47:12;;;;;;;;;34.75;32.25;;;;;19.83;90.98;100751.56;5072509;28;8833;-73
2021/06/14 02:50:08;;;;;;;;;45.00;37.00;;;;;19.75;90.93;100758.31;5072087;28;8851;-73
